Time;durP1;ratioP1;P1;durP2;ratioP2;P2;SDS_P1;SDS_P2;PMS_P1;PMS_P2;Temp;Humidity;BMP_temperature;BMP_pressure;BME280_temperature;BME280_humidity;BME280_pressure;Samples;Min_cycle;Max_cycle;Signal;HPM_P1;HPM_P2
2021/07/10 00:00:18;;;;;;;24.75;22.17;;;;;;;17.78;91.07;101861.78;5215556;28;20403;-66
2021/07/10 00:02:50;;;;;;;24.70;22.20;;;;;;;17.74;91.04;101859.41;5215587;28;20025;-66
2021/07/10 00:05:21;;;;;;;27.15;21.20;;;;;;;17.74;90.32;101863.88;5215744;28;20033;-66
2021/07/10 00:07:52;;;;;;;23.90;21.40;;;;;;;17.71;90.81;101858.88;5214627;28;20454;-67
2021/07/10 00:10:24;;;;;;;24.13;21.60;;;;;;;17.62;90.44;101844.72;5215185;28;20060;-66
2021/07/10 00:12:55;;;;;;;22.83;20.42;;;;;;;17.66;90.39;101851.38;5215635;28;20599;-66
2021/07/10 00:15:27;;;;;;;24.60;21.47;;;;;;;17.59;90.92;101842.38;5215954;28;20029;-66
2021/07/10 00:17:59;;;;;;;25.13;22.47;;;;;;;17.56;90.78;101844.50;5214248;28;20117;-68
2021/07/10 00:20:30;;;;;;;24.17;21.58;;;;;;;17.52;90.42;101844.78;5215530;28;20024;-66
2021/07/10 00:23:01;;;;;;;23.50;21.00;;;;;;;17.50;91.05;101849.41;5214967;28;20041;-66
2021/07/10 00:25:33;;;;;;;24.08;21.50;;;;;;;17.49;90.54;101853.03;5215026;28;20092;-66
2021/07/10 00:28:06;;;;;;;26.98;22.80;;;;;;;17.44;91.45;101859.78;5215423;28;20096;-66
2021/07/10 00:30:37;;;;;;;;;;;;;;;17.77;88.60;101852.16;5215631;28;20030;-66
2021/07/10 00:33:08;;;;;;;24.57;20.93;;;;;;;17.58;90.76;101845.16;5196725;28;20650;-66
2021/07/10 00:35:39;;;;;;;28.33;24.13;;;;;;;17.52;91.30;101847.44;5214585;28;20030;-66
2021/07/10 00:38:11;;;;;;;26.67;22.27;;;;;;;17.44;91.08;101835.94;5214435;28;20168;-66
2021/07/10 00:40:43;;;;;;;25.87;21.57;;;;;;;17.37;92.61;101843.66;5214865;28;20443;-66
2021/07/10 00:43:14;;;;;;;24.95;22.35;;;;;;;17.38;92.09;101839.19;5215326;28;20018;-66
2021/07/10 00:45:47;;;;;;;24.98;22.38;;;;;;;17.36;92.62;101842.00;5214718;28;20091;-67
2021/07/10 00:48:18;;;;;;;26.10;23.30;;;;;;;17.39;92.35;101835.56;5213962;28;20364;-66
2021/07/10 00:50:50;;;;;;;25.50;21.95;;;;;;;17.34;92.79;101840.47;5214419;28;20037;-66
2021/07/10 00:53:21;;;;;;;25.02;21.88;;;;;;;17.36;92.27;101833.22;5187061;28;20036;-66
2021/07/10 00:55:52;;;;;;;27.83;22.20;;;;;;;17.34;92.66;101837.81;5213749;28;20022;-66
2021/07/10 00:58:24;;;;;;;27.10;24.02;;;;;;;17.31;93.34;101831.00;5214490;28;20124;-66
2021/07/10 01:00:55;;;;;;;25.67;22.60;;;;;;;17.35;92.86;101823.56;5215204;28;20375;-66
2021/07/10 01:03:31;;;;;;;27.17;22.33;;;;;;;17.39;93.08;101823.16;5214286;28;20020;-66
2021/07/10 01:06:02;;;;;;;27.63;23.13;;;;;;;17.37;93.57;101809.22;5213700;28;20116;-66
2021/07/10 01:08:35;;;;;;;28.45;23.60;;;;;;;17.34;93.22;101817.44;5214967;28;20030;-66
2021/07/10 01:11:06;;;;;;;27.83;23.05;;;;;;;17.33;93.14;101812.31;5214376;28;20076;-66
2021/07/10 01:13:38;;;;;;;29.00;23.38;;;;;;;17.29;93.69;101813.59;5214321;28;20329;-66
2021/07/10 01:16:09;;;;;;;26.43;23.63;;;;;;;17.26;93.87;101802.31;5213773;28;20053;-66
2021/07/10 01:18:40;;;;;;;26.77;22.63;;;;;;;17.25;94.00;101803.31;5214247;28;20049;-66
2021/07/10 01:21:12;;;;;;;27.83;23.30;;;;;;;17.24;93.63;101808.75;5213840;28;20065;-66
2021/07/10 01:23:43;;;;;;;26.60;23.70;;;;;;;17.24;94.33;101812.25;5212772;28;20034;-66
2021/07/10 01:26:14;;;;;;;26.80;23.38;;;;;;;17.39;93.89;101803.78;5214852;28;20036;-67
2021/07/10 01:28:46;;;;;;;28.53;23.83;;;;;;;17.26;94.42;101804.97;5214518;28;20052;-67
2021/07/10 01:31:18;;;;;;;31.37;24.80;;;;;;;17.24;94.65;101803.47;5213052;28;20037;-68
2021/07/10 01:33:49;;;;;;;29.13;24.57;;;;;;;17.22;94.80;101802.78;5213910;28;20022;-66
2021/07/10 01:36:21;;;;;;;32.13;24.08;;;;;;;17.26;94.68;101788.25;5207288;28;20034;-66
2021/07/10 01:38:52;;;;;;;28.98;24.15;;;;;;;17.23;94.76;101789.38;5212555;28;20022;-67
2021/07/10 01:41:23;;;;;;;29.37;25.03;;;;;;;17.24;94.44;101788.41;5207967;28;20061;-67
2021/07/10 01:43:55;;;;;;;30.50;24.02;;;;;;;17.22;94.94;101787.72;5211684;28;20036;-66
2021/07/10 01:46:26;;;;;;;30.83;25.13;;;;;;;17.23;95.48;101786.72;5212060;28;20483;-66
2021/07/10 01:48:57;;;;;;;32.20;25.15;;;;;;;17.15;95.93;101784.00;5212616;28;20039;-66
2021/07/10 01:51:29;;;;;;;29.33;23.98;;;;;;;17.19;95.57;101785.34;5213778;28;20041;-67
2021/07/10 01:54:00;;;;;;;30.98;24.77;;;;;;;17.17;95.91;101781.22;5213523;28;20018;-66
2021/07/10 01:56:32;;;;;;;32.87;25.50;;;;;;;17.16;95.67;101780.38;5213014;28;20430;-66
2021/07/10 01:59:04;;;;;;;32.38;24.55;;;;;;;17.13;96.38;101778.03;5212378;28;20092;-66
2021/07/10 02:01:35;;;;;;;33.72;25.70;;;;;;;17.11;96.07;101777.34;5212504;28;20030;-66
2021/07/10 02:04:08;;;;;;;30.17;25.88;;;;;;;17.12;96.49;101773.72;5213290;28;20029;-66
2021/07/10 02:06:39;;;;;;;35.33;27.90;;;;;;;17.10;96.45;101772.19;5211946;28;20057;-66
2021/07/10 02:09:10;;;;;;;28.60;25.40;;;;;;;17.06;96.40;101765.53;5212039;28;20607;-66
2021/07/10 02:11:47;;;;;;;32.50;26.20;;;;;;;17.10;96.59;101764.25;5212454;28;20518;-66
2021/07/10 02:14:19;;;;;;;31.73;25.70;;;;;;;17.04;96.97;101760.38;5213446;28;20487;-66
2021/07/10 02:16:51;;;;;;;32.00;27.05;;;;;;;17.02;96.89;101768.47;5213096;28;20088;-66
2021/07/10 02:19:22;;;;;;;31.15;26.48;;;;;;;16.99;96.58;101767.94;5194023;28;20025;-66
2021/07/10 02:21:53;;;;;;;35.10;27.33;;;;;;;16.96;96.96;101763.78;5213539;28;20518;-66
2021/07/10 02:24:24;;;;;;;34.38;27.17;;;;;;;16.93;96.86;101766.75;5213993;28;20509;-66
2021/07/10 02:26:56;;;;;;;32.38;25.00;;;;;;;16.95;97.47;101769.22;5212679;28;20038;-66
2021/07/10 02:29:28;;;;;;;31.00;27.02;;;;;;;16.93;97.61;101761.44;5211974;28;20022;-66
2021/07/10 02:31:59;;;;;;;32.88;27.15;;;;;;;16.92;96.93;101759.75;5212453;28;20037;-66
2021/07/10 02:34:31;;;;;;;34.40;28.20;;;;;;;17.00;97.08;101765.13;5213025;28;20029;-67
2021/07/10 02:37:02;;;;;;;36.58;28.27;;;;;;;16.90;97.75;101764.38;5211343;28;20483;-66
2021/07/10 02:39:33;;;;;;;37.13;28.00;;;;;;;16.84;98.73;101761.50;5213064;28;20037;-66
2021/07/10 02:42:05;;;;;;;36.85;28.92;;;;;;;16.81;98.60;101759.97;5212815;28;20018;-66
2021/07/10 02:44:36;;;;;;;38.08;30.02;;;;;;;16.75;98.77;101752.66;5213198;28;20033;-66
2021/07/10 02:47:08;;;;;;;36.38;28.50;;;;;;;16.75;98.52;101753.47;5211473;28;20491;-66
2021/07/10 02:49:39;;;;;;;37.53;30.15;;;;;;;16.71;98.66;101745.97;5211576;28;20064;-66
2021/07/10 02:52:11;;;;;;;38.85;29.58;;;;;;;16.64;99.41;101737.78;5213112;28;20108;-66
2021/07/10 02:54:43;;;;;;;36.80;29.38;;;;;;;16.68;98.92;101736.50;5212159;28;20034;-66
2021/07/10 02:57:15;;;;;;;35.78;29.05;;;;;;;16.69;98.76;101738.16;5213204;28;20036;-66
2021/07/10 02:59:46;;;;;;;35.70;29.38;;;;;;;16.67;99.14;101737.47;5211495;28;20037;-66
2021/07/10 03:02:17;;;;;;;40.40;29.45;;;;;;;16.73;99.12;101733.41;5212559;28;20036;-66
2021/07/10 03:04:49;;;;;;;35.35;28.60;;;;;;;16.69;98.78;101726.72;5212780;28;20030;-66
2021/07/10 03:07:20;;;;;;;35.55;28.98;;;;;;;16.67;98.74;101732.19;5211334;28;20487;-66
2021/07/10 03:09:52;;;;;;;39.58;29.45;;;;;;;16.68;99.29;101731.19;5212158;28;20021;-66
2021/07/10 03:12:23;;;;;;;35.72;28.35;;;;;;;16.64;99.66;101723.72;5211994;28;20520;-67
2021/07/10 03:14:54;;;;;;;35.70;28.23;;;;;;;16.66;98.76;101719.09;5211075;28;21080;-66
2021/07/10 03:17:26;;;;;;;39.63;29.35;;;;;;;16.62;99.71;101709.78;5212879;28;20033;-66
2021/07/10 03:19:57;;;;;;;47.35;29.10;;;;;;;16.52;100.00;101705.41;5212350;28;20034;-66
2021/07/10 03:22:29;;;;;;;37.60;28.05;;;;;;;16.69;99.11;101708.22;5211315;28;20480;-66
2021/07/10 03:25:01;;;;;;;40.28;29.38;;;;;;;16.60;100.00;101706.47;5212843;28;20041;-66
2021/07/10 03:27:33;;;;;;;38.47;29.70;;;;;;;16.60;99.96;101706.47;5211993;28;20503;-66
2021/07/10 03:30:07;;;;;;;37.38;27.58;;;;;;;16.65;99.52;101712.13;5212170;28;20071;-66
2021/07/10 03:32:39;;;;;;;36.63;31.13;;;;;;;16.52;100.00;101707.22;5211740;28;20029;-66
2021/07/10 03:35:12;;;;;;;40.65;30.90;;;;;;;16.61;99.71;101711.59;5211984;28;20029;-67
2021/07/10 03:37:46;;;;;;;37.65;29.33;;;;;;;16.51;100.00;101702.88;5212722;28;20105;-66
2021/07/10 03:40:20;;;;;;;41.72;31.73;;;;;;;16.59;100.00;101700.31;5211303;28;20026;-66
2021/07/10 03:42:53;;;;;;;41.75;30.98;;;;;;;16.51;100.00;101705.53;5210655;28;20402;-66
2021/07/10 03:45:24;;;;;;;39.90;30.52;;;;;;;16.49;100.00;101700.41;5212108;28;20463;-66
2021/07/10 03:47:56;;;;;;;46.63;31.45;;;;;;;16.58;100.00;101711.06;5211600;28;20080;-66
2021/07/10 03:50:27;;;;;;;44.22;31.58;;;;;;;16.60;100.00;101711.75;5212077;28;20022;-66
2021/07/10 03:52:59;;;;;;;45.75;30.88;;;;;;;16.63;100.00;101714.09;5211773;28;20475;-66
2021/07/10 03:55:31;;;;;;;48.72;30.98;;;;;;;16.61;100.00;101713.41;5212182;28;20045;-66
2021/07/10 03:58:03;;;;;;;47.45;31.50;;;;;;;16.59;100.00;101708.25;5211178;28;20105;-66
2021/07/10 04:00:34;;;;;;;52.80;33.60;;;;;;;16.73;100.00;101706.94;5207033;28;20158;-67
2021/07/10 04:03:06;;;;;;;47.45;33.20;;;;;;;16.54;100.00;101705.22;5210176;28;20702;-67
2021/07/10 04:05:37;;;;;;;45.85;31.75;;;;;;;16.52;100.00;101694.81;5209863;28;20045;-66
2021/07/10 04:08:09;;;;;;;47.33;33.85;;;;;;;16.59;100.00;101694.19;5212859;28;20026;-66
2021/07/10 04:10:40;;;;;;;47.38;32.53;;;;;;;16.60;100.00;101696.72;5214364;28;20033;-66
2021/07/10 04:13:12;;;;;;;43.30;31.83;;;;;;;16.58;100.00;101693.38;5215698;28;20092;-69
2021/07/10 04:15:43;;;;;;;47.50;33.43;;;;;;;16.74;100.00;101698.91;5216326;28;20045;-68
2021/07/10 04:18:14;;;;;;;48.13;33.20;;;;;;;16.68;100.00;101701.25;5214215;28;20030;-68
2021/07/10 04:20:49;;;;;;;44.03;31.58;;;;;;;16.81;100.00;101696.47;5215793;28;20041;-68
2021/07/10 04:23:20;;;;;;;43.92;32.28;;;;;;;16.77;100.00;101697.75;5216132;28;20609;-69
2021/07/10 04:25:52;;;;;;;43.47;32.50;;;;;;;16.76;100.00;101702.22;5215286;28;20025;-68
2021/07/10 04:28:23;;;;;;;41.57;30.47;;;;;;;16.78;100.00;101699.41;5213830;28;20104;-66
2021/07/10 04:30:55;;;;;;;41.70;31.75;;;;;;;16.75;100.00;101708.50;5215693;28;20104;-66
2021/07/10 04:33:26;;;;;;;46.85;33.40;;;;;;;16.73;100.00;101696.34;5197930;28;20029;-66
2021/07/10 04:35:57;;;;;;;44.88;31.33;;;;;;;16.75;100.00;101697.91;5214577;28;20025;-66
2021/07/10 04:38:28;;;;;;;43.70;32.08;;;;;;;16.83;100.00;101699.81;5215046;28;20028;-66
2021/07/10 04:41:00;;;;;;;47.42;34.13;;;;;;;16.85;100.00;101705.75;5211030;28;20021;-66
2021/07/10 04:43:32;;;;;;;48.90;34.05;;;;;;;16.85;100.00;101702.28;5214002;28;20034;-66
2021/07/10 04:46:04;;;;;;;47.30;33.95;;;;;;;16.87;100.00;101698.53;5215075;28;20558;-66
2021/07/10 04:48:35;;;;;;;43.42;32.53;;;;;;;16.97;100.00;101703.72;5214753;28;20091;-67
2021/07/10 04:51:06;;;;;;;47.00;33.75;;;;;;;16.97;100.00;101707.22;5213964;28;20040;-66
2021/07/10 04:53:38;;;;;;;49.60;33.67;;;;;;;16.94;100.00;101710.16;5214265;28;20026;-66
2021/07/10 04:56:09;;;;;;;46.90;33.40;;;;;;;16.99;100.00;101712.34;5213841;28;20033;-66
2021/07/10 04:58:43;;;;;;;49.42;34.75;;;;;;;16.92;100.00;101685.66;5214570;28;20516;-66
2021/07/10 05:01:15;;;;;;;54.10;34.42;;;;;;;17.08;100.00;101705.31;5213274;28;20041;-66
2021/07/10 05:03:46;;;;;;;49.65;34.38;;;;;;;17.13;99.86;101703.06;5214790;28;20025;-66
2021/07/10 05:06:17;;;;;;;51.90;32.42;;;;;;;17.19;99.86;101699.78;5214574;28;20029;-66
2021/07/10 05:08:49;;;;;;;50.75;33.42;;;;;;;17.18;99.96;101712.19;5214331;28;20029;-66
2021/07/10 05:11:20;;;;;;;46.42;33.72;;;;;;;17.19;99.77;101702.44;5213392;28;20127;-66
2021/07/10 05:13:51;;;;;;;55.33;33.83;;;;;;;17.20;100.00;101702.31;5213196;28;20116;-66
2021/07/10 05:16:22;;;;;;;45.70;34.15;;;;;;;17.31;99.69;101700.38;5214455;28;20148;-66
2021/07/10 05:18:54;;;;;;;47.22;32.22;;;;;;;17.35;99.13;101701.72;5214589;28;20017;-66
2021/07/10 05:21:25;;;;;;;45.90;32.27;;;;;;;17.42;99.18;101700.97;5214315;28;20018;-66
2021/07/10 05:23:56;;;;;;;36.10;28.05;;;;;;;17.49;98.69;101698.53;5211995;28;20111;-66
2021/07/10 05:26:28;;;;;;;38.33;29.77;;;;;;;17.47;98.55;101696.06;5213929;28;20034;-66
2021/07/10 05:29:00;;;;;;;38.65;29.67;;;;;;;17.60;98.91;101700.13;5213600;28;20455;-66
2021/07/10 05:31:31;;;;;;;38.28;28.17;;;;;;;17.59;98.31;101693.97;5213199;28;20326;-66
2021/07/10 05:34:03;;;;;;;32.35;25.38;;;;;;;17.64;96.64;101694.34;5213910;28;20475;-66
2021/07/10 05:36:34;;;;;;;37.15;27.85;;;;;;;17.63;97.22;101695.34;5213113;28;20060;-66
2021/07/10 05:39:05;;;;;;;32.47;25.40;;;;;;;17.67;97.27;101701.16;5213946;28;20188;-66
2021/07/10 05:41:37;;;;;;;33.07;25.87;;;;;;;17.64;96.01;101689.03;5213256;28;20029;-66
2021/07/10 05:44:08;;;;;;;35.75;26.23;;;;;;;17.62;96.50;101687.56;5213811;28;20054;-66
2021/07/10 05:46:39;;;;;;;32.70;25.90;;;;;;;17.74;97.02;101703.03;5213179;28;20495;-66
2021/07/10 05:49:11;;;;;;;33.00;25.75;;;;;;;17.72;96.26;101702.34;5213131;28;20040;-66
2021/07/10 05:51:42;;;;;;;29.73;23.70;;;;;;;17.75;95.60;101698.59;5214455;28;20033;-66
2021/07/10 05:54:13;;;;;;;32.60;23.58;;;;;;;17.69;95.31;101691.22;5213306;28;20041;-66
2021/07/10 05:56:45;;;;;;;30.57;22.77;;;;;;;17.75;95.59;101707.38;5212580;28;20037;-66
2021/07/10 05:59:16;;;;;;;28.60;23.80;;;;;;;17.79;96.30;101696.47;5214280;28;20072;-66
2021/07/10 06:01:47;;;;;;;30.90;24.13;;;;;;;17.81;95.42;101705.94;5210480;28;20025;-66
2021/07/10 06:04:19;;;;;;;30.00;23.73;;;;;;;17.88;95.89;101698.16;5209635;28;20033;-66
2021/07/10 06:06:50;;;;;;;29.67;22.48;;;;;;;17.81;94.92;101691.84;5213119;28;20126;-67
2021/07/10 06:09:21;;;;;;;29.67;23.07;;;;;;;17.94;94.94;101702.84;5213080;28;20114;-66
2021/07/10 06:11:53;;;;;;;24.35;20.17;;;;;;;18.01;94.74;101693.28;5212550;28;20024;-66
2021/07/10 06:14:25;;;;;;;26.52;22.13;;;;;;;18.05;94.28;101693.78;5211712;28;20121;-66
2021/07/10 06:16:57;;;;;;;26.07;20.43;;;;;;;18.08;92.83;101694.31;5212869;28;20108;-66
2021/07/10 06:19:28;;;;;;;24.13;19.77;;;;;;;18.09;92.68;101698.59;5212933;28;20030;-66
2021/07/10 06:21:59;;;;;;;24.65;20.40;;;;;;;18.18;93.31;101697.69;5210455;28;20032;-67
2021/07/10 06:24:31;;;;;;;21.45;18.60;;;;;;;18.19;92.15;101701.16;5211720;28;20034;-66
2021/07/10 06:27:02;;;;;;;24.45;19.45;;;;;;;18.27;91.89;101703.00;5211406;28;20038;-66
2021/07/10 06:29:34;;;;;;;28.17;19.50;;;;;;;18.26;92.50;101703.97;5211712;28;20160;-66
2021/07/10 06:32:08;;;;;;;26.58;20.08;;;;;;;18.26;92.09;101702.19;5213321;28;20029;-66
2021/07/10 06:34:40;;;;;;;27.90;19.73;;;;;;;18.38;91.90;101697.41;5212959;28;20770;-66
2021/07/10 06:37:11;;;;;;;23.48;18.48;;;;;;;18.47;91.06;101691.97;5211211;28;20479;-66
2021/07/10 06:39:42;;;;;;;25.50;19.60;;;;;;;18.48;91.32;101696.28;5212899;28;20087;-66
2021/07/10 06:42:14;;;;;;;26.13;20.70;;;;;;;18.53;91.33;101698.47;5213015;28;20112;-66
2021/07/10 06:44:45;;;;;;;23.80;19.63;;;;;;;18.61;92.08;101692.34;5212864;28;20041;-66
2021/07/10 06:47:18;;;;;;;22.30;18.40;;;;;;;18.74;90.51;101694.56;5211316;28;20121;-66
2021/07/10 06:49:50;;;;;;;19.02;16.90;;;;;;;18.80;88.08;101691.25;5212075;28;20436;-67
2021/07/10 06:52:21;;;;;;;18.95;15.98;;;;;;;18.80;86.37;101689.44;5212416;28;20040;-66
2021/07/10 06:54:52;;;;;;;18.97;15.77;;;;;;;18.91;86.58;101691.78;5211708;28;20080;-67
2021/07/10 06:57:24;;;;;;;21.93;16.10;;;;;;;18.92;86.40;101695.25;5211828;28;20056;-66
2021/07/10 06:59:55;;;;;;;18.00;14.43;;;;;;;18.98;83.74;101691.94;5210905;28;20026;-66
2021/07/10 07:02:26;;;;;;;14.67;13.10;;;;;;;19.10;84.75;101695.09;5211593;28;20048;-65
2021/07/10 07:04:58;;;;;;;16.77;14.40;;;;;;;19.13;85.01;101694.75;5207813;28;20029;-66
2021/07/10 07:07:29;;;;;;;14.70;11.43;;;;;;;19.19;79.35;101691.44;5212331;28;20025;-66
2021/07/10 07:10:01;;;;;;;14.23;9.30;;;;;;;19.29;80.24;101691.28;5211826;28;20032;-67
2021/07/10 07:12:32;;;;;;;10.43;9.10;;;;;;;19.30;79.60;101691.13;5193611;28;20511;-65
2021/07/10 07:15:08;;;;;;;12.87;9.57;;;;;;;19.43;78.41;101685.28;5212103;28;20022;-65
2021/07/10 07:17:40;;;;;;;12.82;9.32;;;;;;;19.35;78.09;101685.28;5194201;28;20112;-66
2021/07/10 07:20:14;;;;;;;11.63;9.97;;;;;;;19.39;80.27;101682.13;5212176;28;20022;-65
2021/07/10 07:22:47;;;;;;;12.82;11.15;;;;;;;19.55;79.50;101672.50;5210728;28;20037;-65
2021/07/10 07:25:21;;;;;;;13.50;11.27;;;;;;;19.49;78.27;101681.97;5212350;28;20475;-66
2021/07/10 07:27:53;;;;;;;12.00;9.77;;;;;;;19.59;76.19;101679.13;5212180;28;20522;-66
2021/07/10 07:30:24;;;;;;;12.77;8.33;;;;;;;19.61;72.36;101677.94;5210146;28;20495;-66
2021/07/10 07:32:55;;;;;;;9.03;7.27;;;;;;;19.74;74.58;101666.84;5194317;28;20084;-66
2021/07/10 07:35:28;;;;;;;13.10;8.83;;;;;;;19.90;75.51;101674.75;5210761;28;20030;-66
2021/07/10 07:38:00;;;;;;;13.45;9.73;;;;;;;20.10;76.25;101672.53;5210192;28;20026;-66
2021/07/10 07:40:31;;;;;;;12.37;9.70;;;;;;;20.39;74.37;101671.91;5211789;28;20049;-66
2021/07/10 07:43:02;;;;;;;11.60;8.53;;;;;;;20.35;72.07;101675.09;5214700;28;20105;-65
2021/07/10 07:45:34;;;;;;;10.47;9.03;;;;;;;20.40;70.81;101680.72;5214451;28;20368;-66
2021/07/10 07:48:05;;;;;;;10.50;8.73;;;;;;;20.60;71.33;101673.97;5215742;28;20484;-66
2021/07/10 07:50:37;;;;;;;10.50;9.03;;;;;;;20.44;71.67;101663.38;5215421;28;20043;-66
2021/07/10 07:53:08;;;;;;;9.77;8.07;;;;;;;20.61;71.36;101672.97;5215813;28;20041;-66
2021/07/10 07:55:39;;;;;;;8.43;6.57;;;;;;;20.54;71.86;101669.34;5214247;28;20032;-65
2021/07/10 07:58:10;;;;;;;10.27;7.70;;;;;;;20.53;69.59;101669.50;5215171;28;20026;-66
2021/07/10 08:00:42;;;;;;;11.13;7.67;;;;;;;20.68;68.97;101667.75;5215949;28;20034;-66
2021/07/10 08:03:13;;;;;;;9.80;7.67;;;;;;;20.86;68.63;101668.28;5215358;28;20139;-66
2021/07/10 08:05:45;;;;;;;8.87;6.90;;;;;;;20.99;67.98;101659.72;5214605;28;20030;-67
2021/07/10 08:08:16;;;;;;;12.00;7.70;;;;;;;20.92;70.15;101660.63;5214740;28;20499;-66
2021/07/10 08:10:47;;;;;;;9.87;7.53;;;;;;;21.04;71.61;101654.69;5211869;28;20018;-66
2021/07/10 08:13:18;;;;;;;11.43;7.80;;;;;;;20.96;68.94;101662.75;5213363;28;20075;-66
2021/07/10 08:15:50;;;;;;;11.10;7.67;;;;;;;21.16;69.23;101648.91;5214971;28;20030;-65
2021/07/10 08:18:21;;;;;;;12.27;8.80;;;;;;;21.16;69.99;101649.75;5215546;28;20174;-65
2021/07/10 08:20:53;;;;;;;8.43;7.23;;;;;;;21.28;68.43;101652.81;5215648;28;20407;-65
2021/07/10 08:23:24;;;;;;;8.47;6.90;;;;;;;21.43;68.49;101651.03;5214977;28;20394;-66
2021/07/10 08:25:56;;;;;;;8.60;7.40;;;;;;;21.52;69.39;101649.13;5214726;28;20030;-65
2021/07/10 08:28:27;;;;;;;9.93;6.80;;;;;;;21.61;70.06;101643.50;5215324;28;20037;-65
2021/07/10 08:30:58;;;;;;;9.73;7.53;;;;;;;21.66;67.87;101642.94;5214760;28;20530;-66
2021/07/10 08:33:30;;;;;;;11.40;7.23;;;;;;;21.53;66.69;101648.94;5215164;28;20040;-66
2021/07/10 08:36:02;;;;;;;11.20;7.95;;;;;;;21.61;67.57;101642.69;5214901;28;20449;-66
2021/07/10 08:38:36;;;;;;;13.03;7.97;;;;;;;21.72;67.62;101644.06;5215199;28;20037;-66
2021/07/10 08:41:10;;;;;;;11.48;8.25;;;;;;;21.79;67.53;101650.31;5213573;28;20026;-65
2021/07/10 08:43:43;;;;;;;9.27;7.30;;;;;;;21.95;68.15;101641.28;5215412;28;20030;-65
2021/07/10 08:46:16;;;;;;;12.10;8.40;;;;;;;21.82;67.11;101640.13;5214527;28;20037;-66
2021/07/10 08:48:48;;;;;;;12.45;8.10;;;;;;;21.95;68.72;101636.78;5213719;28;20091;-65
2021/07/10 08:51:20;;;;;;;10.25;8.68;;;;;;;22.00;68.83;101629.03;5214986;28;20036;-65
2021/07/10 08:53:51;;;;;;;12.40;9.80;;;;;;;22.11;66.95;101627.72;5214659;28;20030;-65
2021/07/10 08:56:23;;;;;;;12.57;10.47;;;;;;;21.92;67.76;101621.13;5214193;28;20058;-66
2021/07/10 08:58:54;;;;;;;11.37;9.10;;;;;;;22.17;69.14;101632.38;5214812;28;20030;-66
2021/07/10 09:01:25;;;;;;;14.73;11.90;;;;;;;22.16;67.45;101627.19;5214161;28;20024;-66
2021/07/10 09:03:56;;;;;;;15.83;11.80;;;;;;;22.21;68.77;101625.63;5214524;28;20036;-65
2021/07/10 09:06:28;;;;;;;13.30;10.93;;;;;;;22.26;67.20;101627.75;5213388;28;20040;-65
2021/07/10 09:09:03;;;;;;;13.47;11.50;;;;;;;22.36;65.86;101622.09;5214687;28;20029;-66
2021/07/10 09:11:34;;;;;;;14.45;11.45;;;;;;;22.40;65.97;101618.88;5214125;28;20029;-65
2021/07/10 09:14:06;;;;;;;13.57;10.37;;;;;;;22.36;66.93;101617.59;5212029;28;20046;-66
2021/07/10 09:16:37;;;;;;;13.30;10.97;;;;;;;22.48;66.92;101617.91;5197326;28;20526;-66
2021/07/10 09:19:10;;;;;;;13.50;10.30;;;;;;;22.60;66.16;101613.72;5214947;28;20030;-66
2021/07/10 09:21:50;;;;;;;11.65;9.07;;;;;;;22.76;65.27;101617.97;5213346;28;20033;-65
2021/07/10 09:24:32;;;;;;;11.27;9.40;;;;;;;22.90;65.53;101619.75;5214082;28;20017;-66
2021/07/10 09:27:06;;;;;;;9.98;8.90;;;;;;;22.92;65.47;101617.75;5213955;28;20403;-66
2021/07/10 09:29:40;;;;;;;12.25;9.40;;;;;;;22.95;66.22;101614.66;5213086;28;20025;-66
2021/07/10 09:32:21;;;;;;;12.63;8.90;;;;;;;23.15;65.59;101612.19;5213879;28;20386;-66
2021/07/10 09:34:55;;;;;;;11.30;8.98;;;;;;;22.95;65.32;101608.50;5213845;28;20085;-66
2021/07/10 09:37:29;;;;;;;9.82;8.18;;;;;;;23.09;64.02;101610.28;5214267;28;20045;-66
2021/07/10 09:40:04;;;;;;;11.18;8.73;;;;;;;22.90;63.15;101609.06;5212933;28;20025;-66
2021/07/10 09:42:38;;;;;;;10.73;8.45;;;;;;;22.75;63.40;101606.47;5208924;28;20112;-65
2021/07/10 09:45:18;;;;;;;8.27;6.05;;;;;;;23.12;61.86;101598.38;5194690;28;20029;-66
2021/07/10 09:47:50;;;;;;;6.05;5.18;;;;;;;23.17;60.77;101593.25;5212769;28;20064;-66
2021/07/10 09:50:25;;;;;;;9.23;7.20;;;;;;;23.28;61.23;101596.22;5213859;28;20014;-65
2021/07/10 09:52:56;;;;;;;10.38;7.60;;;;;;;23.66;62.26;101586.97;5211565;28;20072;-66
2021/07/10 09:55:28;;;;;;;8.90;8.00;;;;;;;23.76;63.10;101593.63;5211712;28;20039;-66
2021/07/10 09:57:59;;;;;;;9.00;6.80;;;;;;;23.82;59.39;101591.19;5196515;28;20383;-66
2021/07/10 10:00:31;;;;;;;9.57;6.33;;;;;;;24.15;58.65;101583.28;5212839;28;20045;-66
2021/07/10 10:03:02;;;;;;;7.10;6.10;;;;;;;24.51;57.55;101585.66;5212160;28;20076;-66
2021/07/10 10:05:40;;;;;;;9.20;7.30;;;;;;;24.60;57.11;101578.25;5212353;28;20034;-65
2021/07/10 10:08:13;;;;;;;7.68;6.25;;;;;;;24.70;54.66;101579.50;5210416;28;20041;-66
2021/07/10 10:10:53;;;;;;;8.57;6.60;;;;;;;24.57;55.43;101575.97;5211231;28;20483;-66
2021/07/10 10:13:24;;;;;;;7.78;6.20;;;;;;;24.18;53.54;101570.31;5212915;28;20242;-66
2021/07/10 10:15:56;;;;;;;12.43;8.20;;;;;;;24.20;57.47;101576.28;5211408;28;20022;-66
2021/07/10 10:18:27;;;;;;;8.47;6.87;;;;;;;24.22;56.29;101571.56;5211698;28;20044;-66
2021/07/10 10:20:58;;;;;;;8.40;6.23;;;;;;;24.37;55.95;101578.59;5211797;28;20025;-66
2021/07/10 10:23:30;;;;;;;7.03;5.80;;;;;;;24.32;52.15;101573.84;5212875;28;20017;-66
2021/07/10 10:26:03;;;;;;;7.87;6.83;;;;;;;24.13;56.95;101567.44;5211559;28;20065;-66
2021/07/10 10:28:34;;;;;;;13.63;9.23;;;;;;;24.11;56.98;101571.31;5194613;28;20446;-66
2021/07/10 10:31:06;;;;;;;10.40;8.50;;;;;;;24.03;55.51;101562.44;5211248;28;20042;-66
2021/07/10 10:33:37;;;;;;;9.73;8.10;;;;;;;24.07;57.12;101564.72;5212092;28;20056;-66
2021/07/10 10:36:09;;;;;;;9.77;7.33;;;;;;;24.06;54.93;101558.56;5212779;28;21669;-66
2021/07/10 10:38:40;;;;;;;8.43;6.97;;;;;;;24.65;56.05;101543.59;5214186;28;20033;-66
2021/07/10 10:41:11;;;;;;;8.90;7.20;;;;;;;25.00;55.76;101547.72;5195961;28;20362;-66
2021/07/10 10:43:43;;;;;;;9.27;7.47;;;;;;;25.12;54.01;101555.16;5206717;28;20091;-66
2021/07/10 10:46:19;;;;;;;10.43;6.90;;;;;;;25.19;55.59;101540.72;5210573;28;20042;-66
2021/07/10 10:48:51;;;;;;;8.23;6.85;;;;;;;25.22;53.71;101540.25;5211672;28;20479;-66
2021/07/10 10:51:27;;;;;;;9.02;7.22;;;;;;;25.26;52.84;101540.66;5194679;28;20108;-66
2021/07/10 10:54:24;;;;;;;7.55;6.30;;;;;;;25.70;53.54;101547.13;5209924;28;20033;-67
2021/07/10 10:57:07;;;;;;;5.85;4.43;;;;;;;25.75;52.28;101541.13;5210958;28;20483;-66
2021/07/10 10:59:40;;;;;;;6.32;4.70;;;;;;;25.87;50.57;101537.56;5209189;28;20038;-67
2021/07/10 11:02:27;;;;;;;8.02;5.03;;;;;;;25.84;51.73;101534.50;5210426;28;20033;-67
2021/07/10 11:05:00;;;;;;;7.50;5.40;;;;;;;25.67;47.55;101534.13;5211398;28;20037;-66
2021/07/10 11:07:35;;;;;;;5.88;4.70;;;;;;;25.41;49.61;101524.31;5212223;28;20034;-66
2021/07/10 11:10:07;;;;;;;5.35;4.43;;;;;;;25.64;49.73;101524.63;5210189;28;20029;-66
2021/07/10 11:12:48;;;;;;;5.32;4.28;;;;;;;25.61;49.99;101519.72;5210847;28;20033;-66
2021/07/10 11:15:25;;;;;;;5.80;4.40;;;;;;;25.61;48.51;101517.03;5211169;28;20034;-66
2021/07/10 11:17:58;;;;;;;7.05;4.78;;;;;;;25.30;49.71;101515.06;5211587;28;20026;-66
2021/07/10 11:20:41;;;;;;;5.63;4.53;;;;;;;25.70;50.25;101515.75;5210091;28;20045;-66
2021/07/10 11:23:48;;;;;;;6.70;4.93;;;;;;;25.73;49.79;101509.97;5211238;28;20034;-66
2021/07/10 11:26:20;;;;;;;5.68;4.60;;;;;;;25.42;48.86;101512.56;5108667;29;20111;-67
2021/07/10 11:28:52;;;;;;;5.53;4.40;;;;;;;25.35;49.83;101509.09;5193429;28;20486;-67
2021/07/10 11:31:26;;;;;;;6.97;5.70;;;;;;;25.34;47.73;101508.25;5210586;28;20408;-68
2021/07/10 11:34:09;;;;;;;7.65;5.60;;;;;;;25.31;49.61;101503.34;5212149;28;20391;-67